Millerton, Iowa
Current Conditions -  °F | °C
As of 10:15 AM on Monday 26 Jan 2015 (Local Time) from KCNC Reporting Station
Scattered Clouds Scattered Clouds  
Wind Chill: 26°   Ceiling: Unl
Heat Index: 36°   Visibility: 10mi
Dew Point: 30°   Wind: 15mph
Humidity: 81%   Direction: 230°SW
Pressure: 29.8"   Gusts: 24mph
Location:  40.85°N, 93.31°W
Report Text: KCNC 261615Z AUTO 23013G21KT 10SM SCT110 02/M01 A2980 RMK AO2
Loading
Personal Weather Stations






























Interactive Weather Map New forecast layout! Learn more

10-Day Weather Forecast

Advertisements
Track Severe Weather on mobile